sensor_id;sensor_type;location;lat;lon;timestamp;P1;durP1;ratioP1;P2;durP2;ratioP2
46054;SDS011;31788;6.954;-71.872;2022-12-01T00:01:11;2.95;;;2.05;;
46054;SDS011;31788;6.954;-71.872;2022-12-01T00:03:39;4.32;;;2.20;;
46054;SDS011;31788;6.954;-71.872;2022-12-01T00:06:08;3.90;;;2.10;;
46054;SDS011;31788;6.954;-71.872;2022-12-01T00:08:35;5.45;;;2.00;;
46054;SDS011;31788;6.954;-71.872;2022-12-01T00:11:06;3.30;;;1.88;;
46054;SDS011;31788;6.954;-71.872;2022-12-01T00:13:33;2.42;;;1.60;;
46054;SDS011;31788;6.954;-71.872;2022-12-01T00:16:12;5.32;;;1.77;;
46054;SDS011;31788;6.954;-71.872;2022-12-01T00:18:39;3.60;;;2.10;;
46054;SDS011;31788;6.954;-71.872;2022-12-01T00:21:13;7.57;;;2.95;;
46054;SDS011;31788;6.954;-71.872;2022-12-01T00:23:50;8.65;;;5.10;;
46054;SDS011;31788;6.954;-71.872;2022-12-01T00:26:17;8.57;;;4.53;;
46054;SDS011;31788;6.954;-71.872;2022-12-01T00:28:48;9.02;;;5.70;;
46054;SDS011;31788;6.954;-71.872;2022-12-01T00:31:14;7.35;;;4.10;;
46054;SDS011;31788;6.954;-71.872;2022-12-01T00:33:41;11.55;;;7.38;;
46054;SDS011;31788;6.954;-71.872;2022-12-01T00:36:08;8.25;;;4.78;;
46054;SDS011;31788;6.954;-71.872;2022-12-01T00:38:35;5.68;;;3.50;;
46054;SDS011;31788;6.954;-71.872;2022-12-01T00:41:02;6.22;;;3.15;;
46054;SDS011;31788;6.954;-71.872;2022-12-01T00:43:29;5.70;;;2.80;;
46054;SDS011;31788;6.954;-71.872;2022-12-01T00:45:55;4.93;;;2.83;;
46054;SDS011;31788;6.954;-71.872;2022-12-01T00:48:22;6.25;;;2.72;;
46054;SDS011;31788;6.954;-71.872;2022-12-01T00:50:50;4.80;;;2.70;;
46054;SDS011;31788;6.954;-71.872;2022-12-01T00:53:17;5.43;;;2.55;;
46054;SDS011;31788;6.954;-71.872;2022-12-01T00:55:43;5.93;;;2.87;;
46054;SDS011;31788;6.954;-71.872;2022-12-01T00:58:10;5.63;;;3.05;;
46054;SDS011;31788;6.954;-71.872;2022-12-01T01:00:37;6.65;;;3.17;;
46054;SDS011;31788;6.954;-71.872;2022-12-01T01:03:04;4.88;;;3.00;;
46054;SDS011;31788;6.954;-71.872;2022-12-01T01:05:35;8.07;;;5.65;;
46054;SDS011;31788;6.954;-71.872;2022-12-01T01:08:05;21.50;;;15.88;;
46054;SDS011;31788;6.954;-71.872;2022-12-01T01:10:32;30.02;;;24.38;;
46054;SDS011;31788;6.954;-71.872;2022-12-01T01:12:58;29.08;;;22.23;;
46054;SDS011;31788;6.954;-71.872;2022-12-01T01:15:25;18.03;;;14.07;;
46054;SDS011;31788;6.954;-71.872;2022-12-01T01:17:52;14.23;;;9.30;;
46054;SDS011;31788;6.954;-71.872;2022-12-01T01:20:18;8.35;;;6.05;;
46054;SDS011;31788;6.954;-71.872;2022-12-01T01:22:45;7.33;;;4.57;;
46054;SDS011;31788;6.954;-71.872;2022-12-01T01:25:11;4.15;;;2.63;;
46054;SDS011;31788;6.954;-71.872;2022-12-01T01:27:40;6.70;;;2.97;;
46054;SDS011;31788;6.954;-71.872;2022-12-01T01:30:07;5.47;;;3.42;;
46054;SDS011;31788;6.954;-71.872;2022-12-01T01:32:34;8.02;;;3.45;;
46054;SDS011;31788;6.954;-71.872;2022-12-01T01:35:00;4.38;;;2.30;;
46054;SDS011;31788;6.954;-71.872;2022-12-01T01:37:27;4.80;;;2.70;;
46054;SDS011;31788;6.954;-71.872;2022-12-01T01:39:57;5.63;;;2.20;;
46054;SDS011;31788;6.954;-71.872;2022-12-01T01:42:24;3.33;;;1.90;;
46054;SDS011;31788;6.954;-71.872;2022-12-01T01:44:54;4.28;;;2.10;;
46054;SDS011;31788;6.954;-71.872;2022-12-01T01:47:42;4.03;;;2.17;;
46054;SDS011;31788;6.954;-71.872;2022-12-01T01:50:09;5.30;;;2.30;;
46054;SDS011;31788;6.954;-71.872;2022-12-01T01:52:37;4.35;;;2.00;;
46054;SDS011;31788;6.954;-71.872;2022-12-01T01:55:05;4.60;;;2.53;;
46054;SDS011;31788;6.954;-71.872;2022-12-01T01:57:32;7.72;;;2.28;;
46054;SDS011;31788;6.954;-71.872;2022-12-01T02:00:13;5.00;;;2.42;;
46054;SDS011;31788;6.954;-71.872;2022-12-01T02:02:40;7.75;;;2.67;;
46054;SDS011;31788;6.954;-71.872;2022-12-01T02:05:29;5.00;;;3.17;;
46054;SDS011;31788;6.954;-71.872;2022-12-01T02:07:57;6.00;;;2.27;;
46054;SDS011;31788;6.954;-71.872;2022-12-01T02:16:15;6.78;;;2.40;;
46054;SDS011;31788;6.954;-71.872;2022-12-01T02:18:41;6.03;;;2.80;;
46054;SDS011;31788;6.954;-71.872;2022-12-01T02:31:13;8.07;;;3.65;;
46054;SDS011;31788;6.954;-71.872;2022-12-01T02:33:42;10.52;;;3.38;;
46054;SDS011;31788;6.954;-71.872;2022-12-01T02:36:15;13.02;;;4.32;;
46054;SDS011;31788;6.954;-71.872;2022-12-01T02:38:51;9.68;;;3.58;;
46054;SDS011;31788;6.954;-71.872;2022-12-01T02:41:27;8.17;;;3.10;;
46054;SDS011;31788;6.954;-71.872;2022-12-01T02:48:51;3.17;;;1.83;;
46054;SDS011;31788;6.954;-71.872;2022-12-01T02:51:19;5.78;;;1.80;;
46054;SDS011;31788;6.954;-71.872;2022-12-01T02:53:47;6.07;;;2.17;;
46054;SDS011;31788;6.954;-71.872;2022-12-01T02:56:14;3.95;;;1.50;;
46054;SDS011;31788;6.954;-71.872;2022-12-01T02:58:45;3.97;;;1.58;;
46054;SDS011;31788;6.954;-71.872;2022-12-01T03:03:53;4.50;;;1.60;;
46054;SDS011;31788;6.954;-71.872;2022-12-01T03:06:25;4.18;;;1.50;;
46054;SDS011;31788;6.954;-71.872;2022-12-01T03:08:58;3.92;;;1.60;;
46054;SDS011;31788;6.954;-71.872;2022-12-01T03:11:33;3.60;;;1.35;;
46054;SDS011;31788;6.954;-71.872;2022-12-01T03:16:46;2.15;;;1.50;;
46054;SDS011;31788;6.954;-71.872;2022-12-01T03:24:34;3.93;;;1.40;;
46054;SDS011;31788;6.954;-71.872;2022-12-01T03:27:02;2.75;;;1.55;;
46054;SDS011;31788;6.954;-71.872;2022-12-01T03:29:31;5.93;;;1.42;;
46054;SDS011;31788;6.954;-71.872;2022-12-01T03:32:02;2.80;;;1.55;;
46054;SDS011;31788;6.954;-71.872;2022-12-01T03:37:22;4.60;;;1.30;;
46054;SDS011;31788;6.954;-71.872;2022-12-01T03:39:50;4.73;;;1.30;;
46054;SDS011;31788;6.954;-71.872;2022-12-01T03:42:26;3.90;;;1.48;;
46054;SDS011;31788;6.954;-71.872;2022-12-01T03:44:54;2.30;;;1.48;;
46054;SDS011;31788;6.954;-71.872;2022-12-01T03:47:25;3.25;;;1.25;;
46054;SDS011;31788;6.954;-71.872;2022-12-01T03:49:55;2.65;;;1.10;;
46054;SDS011;31788;6.954;-71.872;2022-12-01T03:54:54;3.60;;;1.48;;
46054;SDS011;31788;6.954;-71.872;2022-12-01T03:57:25;3.13;;;1.23;;
46054;SDS011;31788;6.954;-71.872;2022-12-01T03:59:54;3.05;;;1.20;;
46054;SDS011;31788;6.954;-71.872;2022-12-01T04:02:20;3.28;;;1.20;;
46054;SDS011;31788;6.954;-71.872;2022-12-01T04:04:52;4.25;;;1.20;;
46054;SDS011;31788;6.954;-71.872;2022-12-01T04:07:19;4.35;;;1.40;;
46054;SDS011;31788;6.954;-71.872;2022-12-01T04:09:45;2.50;;;1.30;;
46054;SDS011;31788;6.954;-71.872;2022-12-01T04:12:14;4.07;;;1.60;;
46054;SDS011;31788;6.954;-71.872;2022-12-01T04:15:04;2.28;;;1.67;;
46054;SDS011;31788;6.954;-71.872;2022-12-01T04:17:32;3.72;;;1.48;;
46054;SDS011;31788;6.954;-71.872;2022-12-01T04:19:59;3.05;;;1.55;;
46054;SDS011;31788;6.954;-71.872;2022-12-01T04:22:26;3.50;;;1.90;;
46054;SDS011;31788;6.954;-71.872;2022-12-01T04:24:52;2.47;;;1.73;;
46054;SDS011;31788;6.954;-71.872;2022-12-01T04:27:19;3.33;;;1.50;;
46054;SDS011;31788;6.954;-71.872;2022-12-01T04:29:46;5.32;;;2.78;;
46054;SDS011;31788;6.954;-71.872;2022-12-01T04:32:13;3.30;;;2.20;;
46054;SDS011;31788;6.954;-71.872;2022-12-01T04:34:40;5.93;;;4.00;;
46054;SDS011;31788;6.954;-71.872;2022-12-01T04:37:07;4.90;;;3.00;;
46054;SDS011;31788;6.954;-71.872;2022-12-01T04:39:34;4.80;;;2.77;;
46054;SDS011;31788;6.954;-71.872;2022-12-01T04:42:01;5.87;;;3.33;;
46054;SDS011;31788;6.954;-71.872;2022-12-01T04:44:28;5.43;;;2.80;;
46054;SDS011;31788;6.954;-71.872;2022-12-01T04:46:55;4.27;;;2.50;;
46054;SDS011;31788;6.954;-71.872;2022-12-01T04:49:21;5.55;;;2.80;;
46054;SDS011;31788;6.954;-71.872;2022-12-01T04:51:48;4.70;;;1.95;;
46054;SDS011;31788;6.954;-71.872;2022-12-01T04:54:15;3.25;;;1.90;;
46054;SDS011;31788;6.954;-71.872;2022-12-01T04:56:42;3.95;;;2.00;;
46054;SDS011;31788;6.954;-71.872;2022-12-01T04:59:09;3.92;;;1.85;;
46054;SDS011;31788;6.954;-71.872;2022-12-01T05:01:35;3.17;;;1.63;;
46054;SDS011;31788;6.954;-71.872;2022-12-01T05:04:02;2.58;;;1.60;;
46054;SDS011;31788;6.954;-71.872;2022-12-01T05:06:29;3.37;;;1.67;;
46054;SDS011;31788;6.954;-71.872;2022-12-01T05:08:57;3.90;;;1.80;;
46054;SDS011;31788;6.954;-71.872;2022-12-01T05:11:26;2.17;;;1.30;;
46054;SDS011;31788;6.954;-71.872;2022-12-01T05:13:53;3.47;;;1.30;;
46054;SDS011;31788;6.954;-71.872;2022-12-01T05:16:25;3.03;;;1.30;;
46054;SDS011;31788;6.954;-71.872;2022-12-01T05:18:54;3.83;;;1.30;;
46054;SDS011;31788;6.954;-71.872;2022-12-01T05:21:41;1.93;;;1.20;;
46054;SDS011;31788;6.954;-71.872;2022-12-01T05:24:09;3.05;;;1.17;;
46054;SDS011;31788;6.954;-71.872;2022-12-01T05:26:36;3.28;;;1.25;;
46054;SDS011;31788;6.954;-71.872;2022-12-01T05:29:03;2.88;;;1.10;;
46054;SDS011;31788;6.954;-71.872;2022-12-01T05:31:30;3.20;;;1.70;;
46054;SDS011;31788;6.954;-71.872;2022-12-01T05:33:57;2.22;;;1.02;;
46054;SDS011;31788;6.954;-71.872;2022-12-01T05:36:23;4.13;;;1.30;;
46054;SDS011;31788;6.954;-71.872;2022-12-01T05:38:50;1.90;;;1.00;;
46054;SDS011;31788;6.954;-71.872;2022-12-01T05:41:17;1.50;;;1.13;;
46054;SDS011;31788;6.954;-71.872;2022-12-01T05:43:43;2.35;;;1.17;;
46054;SDS011;31788;6.954;-71.872;2022-12-01T05:46:10;2.28;;;1.10;;
46054;SDS011;31788;6.954;-71.872;2022-12-01T05:48:36;3.78;;;1.30;;
46054;SDS011;31788;6.954;-71.872;2022-12-01T05:51:07;3.13;;;1.20;;
46054;SDS011;31788;6.954;-71.872;2022-12-01T05:53:34;4.15;;;1.10;;
46054;SDS011;31788;6.954;-71.872;2022-12-01T05:56:00;1.80;;;1.02;;
46054;SDS011;31788;6.954;-71.872;2022-12-01T05:58:27;2.60;;;1.10;;
46054;SDS011;31788;6.954;-71.872;2022-12-01T06:00:53;2.92;;;1.10;;
46054;SDS011;31788;6.954;-71.872;2022-12-01T06:03:20;2.17;;;1.10;;
46054;SDS011;31788;6.954;-71.872;2022-12-01T06:05:46;2.75;;;1.17;;
46054;SDS011;31788;6.954;-71.872;2022-12-01T06:08:13;1.90;;;1.10;;
46054;SDS011;31788;6.954;-71.872;2022-12-01T06:10:40;3.57;;;1.30;;
46054;SDS011;31788;6.954;-71.872;2022-12-01T06:13:06;2.83;;;1.33;;
46054;SDS011;31788;6.954;-71.872;2022-12-01T06:15:33;2.92;;;1.45;;
46054;SDS011;31788;6.954;-71.872;2022-12-01T06:18:00;4.18;;;1.38;;
46054;SDS011;31788;6.954;-71.872;2022-12-01T06:20:26;1.58;;;1.13;;
46054;SDS011;31788;6.954;-71.872;2022-12-01T06:22:53;2.22;;;1.20;;
46054;SDS011;31788;6.954;-71.872;2022-12-01T06:25:20;2.40;;;1.20;;
46054;SDS011;31788;6.954;-71.872;2022-12-01T06:27:46;2.60;;;1.20;;
46054;SDS011;31788;6.954;-71.872;2022-12-01T06:30:14;3.65;;;1.30;;
46054;SDS011;31788;6.954;-71.872;2022-12-01T06:32:41;2.50;;;1.30;;
46054;SDS011;31788;6.954;-71.872;2022-12-01T06:35:08;3.90;;;1.27;;
46054;SDS011;31788;6.954;-71.872;2022-12-01T06:37:34;2.83;;;1.13;;
46054;SDS011;31788;6.954;-71.872;2022-12-01T06:40:01;4.30;;;1.20;;
46054;SDS011;31788;6.954;-71.872;2022-12-01T06:42:29;3.50;;;1.25;;
46054;SDS011;31788;6.954;-71.872;2022-12-01T06:44:56;3.38;;;1.20;;
46054;SDS011;31788;6.954;-71.872;2022-12-01T06:47:23;3.28;;;1.30;;
46054;SDS011;31788;6.954;-71.872;2022-12-01T06:49:49;2.93;;;1.20;;
46054;SDS011;31788;6.954;-71.872;2022-12-01T06:52:16;2.70;;;1.00;;
46054;SDS011;31788;6.954;-71.872;2022-12-01T06:54:43;5.17;;;1.20;;
46054;SDS011;31788;6.954;-71.872;2022-12-01T06:57:10;3.67;;;1.27;;
46054;SDS011;31788;6.954;-71.872;2022-12-01T06:59:36;3.50;;;1.35;;
46054;SDS011;31788;6.954;-71.872;2022-12-01T07:02:03;5.18;;;1.30;;
46054;SDS011;31788;6.954;-71.872;2022-12-01T07:04:29;7.18;;;1.60;;
46054;SDS011;31788;6.954;-71.872;2022-12-01T07:06:56;5.03;;;1.63;;
46054;SDS011;31788;6.954;-71.872;2022-12-01T07:09:24;3.10;;;1.50;;
46054;SDS011;31788;6.954;-71.872;2022-12-01T07:11:50;3.25;;;1.30;;
46054;SDS011;31788;6.954;-71.872;2022-12-01T07:14:21;3.92;;;1.60;;
46054;SDS011;31788;6.954;-71.872;2022-12-01T07:16:48;3.60;;;1.30;;
46054;SDS011;31788;6.954;-71.872;2022-12-01T07:19:15;3.83;;;1.30;;
46054;SDS011;31788;6.954;-71.872;2022-12-01T07:21:41;4.03;;;1.42;;
46054;SDS011;31788;6.954;-71.872;2022-12-01T07:24:08;2.85;;;1.55;;
46054;SDS011;31788;6.954;-71.872;2022-12-01T07:26:37;4.63;;;1.40;;
46054;SDS011;31788;6.954;-71.872;2022-12-01T07:29:04;2.43;;;1.20;;
46054;SDS011;31788;6.954;-71.872;2022-12-01T07:31:31;3.35;;;1.10;;
46054;SDS011;31788;6.954;-71.872;2022-12-01T07:33:57;3.22;;;1.30;;
46054;SDS011;31788;6.954;-71.872;2022-12-01T07:36:24;5.38;;;1.40;;
46054;SDS011;31788;6.954;-71.872;2022-12-01T07:38:50;3.83;;;1.40;;
46054;SDS011;31788;6.954;-71.872;2022-12-01T07:41:17;3.35;;;1.10;;
46054;SDS011;31788;6.954;-71.872;2022-12-01T07:43:44;3.42;;;1.20;;
46054;SDS011;31788;6.954;-71.872;2022-12-01T07:46:13;3.70;;;1.42;;
46054;SDS011;31788;6.954;-71.872;2022-12-01T07:48:40;3.05;;;1.30;;
46054;SDS011;31788;6.954;-71.872;2022-12-01T07:51:07;2.72;;;1.33;;
46054;SDS011;31788;6.954;-71.872;2022-12-01T07:53:34;3.00;;;1.30;;
46054;SDS011;31788;6.954;-71.872;2022-12-01T07:56:01;3.15;;;1.38;;
46054;SDS011;31788;6.954;-71.872;2022-12-01T07:58:29;2.20;;;1.20;;
46054;SDS011;31788;6.954;-71.872;2022-12-01T08:00:57;2.60;;;1.40;;
46054;SDS011;31788;6.954;-71.872;2022-12-01T08:03:24;3.65;;;1.20;;
46054;SDS011;31788;6.954;-71.872;2022-12-01T08:05:59;4.05;;;1.30;;
46054;SDS011;31788;6.954;-71.872;2022-12-01T08:08:27;2.63;;;1.40;;
46054;SDS011;31788;6.954;-71.872;2022-12-01T08:10:58;2.17;;;1.20;;
46054;SDS011;31788;6.954;-71.872;2022-12-01T08:13:26;2.25;;;1.10;;
46054;SDS011;31788;6.954;-71.872;2022-12-01T08:15:52;2.23;;;1.00;;
46054;SDS011;31788;6.954;-71.872;2022-12-01T08:18:19;2.42;;;1.10;;
46054;SDS011;31788;6.954;-71.872;2022-12-01T08:20:47;2.28;;;1.13;;
46054;SDS011;31788;6.954;-71.872;2022-12-01T08:23:14;3.70;;;1.25;;
46054;SDS011;31788;6.954;-71.872;2022-12-01T08:25:40;2.50;;;1.08;;
46054;SDS011;31788;6.954;-71.872;2022-12-01T08:28:07;2.08;;;1.25;;
46054;SDS011;31788;6.954;-71.872;2022-12-01T08:30:34;2.03;;;1.10;;
46054;SDS011;31788;6.954;-71.872;2022-12-01T08:33:01;3.67;;;1.00;;
46054;SDS011;31788;6.954;-71.872;2022-12-01T08:35:27;4.90;;;1.20;;
46054;SDS011;31788;6.954;-71.872;2022-12-01T08:37:54;2.70;;;1.20;;
46054;SDS011;31788;6.954;-71.872;2022-12-01T08:40:21;2.13;;;1.00;;
46054;SDS011;31788;6.954;-71.872;2022-12-01T08:42:47;2.10;;;1.15;;
46054;SDS011;31788;6.954;-71.872;2022-12-01T08:45:14;2.70;;;1.13;;
46054;SDS011;31788;6.954;-71.872;2022-12-01T08:47:41;2.72;;;1.10;;
46054;SDS011;31788;6.954;-71.872;2022-12-01T08:50:07;3.15;;;1.17;;
46054;SDS011;31788;6.954;-71.872;2022-12-01T08:52:35;2.60;;;1.15;;
46054;SDS011;31788;6.954;-71.872;2022-12-01T08:55:02;3.77;;;1.37;;
46054;SDS011;31788;6.954;-71.872;2022-12-01T08:57:29;2.55;;;1.20;;
46054;SDS011;31788;6.954;-71.872;2022-12-01T08:59:55;4.40;;;1.20;;
46054;SDS011;31788;6.954;-71.872;2022-12-01T09:02:22;2.80;;;1.10;;
46054;SDS011;31788;6.954;-71.872;2022-12-01T09:04:49;2.95;;;1.00;;
46054;SDS011;31788;6.954;-71.872;2022-12-01T09:07:16;1.73;;;1.00;;
46054;SDS011;31788;6.954;-71.872;2022-12-01T09:09:44;3.45;;;1.55;;
46054;SDS011;31788;6.954;-71.872;2022-12-01T09:12:11;2.58;;;1.10;;
46054;SDS011;31788;6.954;-71.872;2022-12-01T09:14:41;2.15;;;1.10;;
46054;SDS011;31788;6.954;-71.872;2022-12-01T09:17:12;2.97;;;1.20;;
46054;SDS011;31788;6.954;-71.872;2022-12-01T09:19:39;2.80;;;1.20;;
46054;SDS011;31788;6.954;-71.872;2022-12-01T09:22:06;3.92;;;1.20;;
46054;SDS011;31788;6.954;-71.872;2022-12-01T09:24:32;3.13;;;1.10;;
46054;SDS011;31788;6.954;-71.872;2022-12-01T09:26:59;2.40;;;1.00;;
46054;SDS011;31788;6.954;-71.872;2022-12-01T09:29:27;2.33;;;1.05;;
46054;SDS011;31788;6.954;-71.872;2022-12-01T09:31:54;2.72;;;1.02;;
46054;SDS011;31788;6.954;-71.872;2022-12-01T09:34:21;1.60;;;0.90;;
46054;SDS011;31788;6.954;-71.872;2022-12-01T09:36:48;2.25;;;1.10;;
46054;SDS011;31788;6.954;-71.872;2022-12-01T09:39:16;2.33;;;1.40;;
46054;SDS011;31788;6.954;-71.872;2022-12-01T09:41:48;3.30;;;1.13;;
46054;SDS011;31788;6.954;-71.872;2022-12-01T09:44:27;1.52;;;0.77;;
46054;SDS011;31788;6.954;-71.872;2022-12-01T09:46:56;2.53;;;1.20;;
46054;SDS011;31788;6.954;-71.872;2022-12-01T09:49:25;1.65;;;1.00;;
46054;SDS011;31788;6.954;-71.872;2022-12-01T09:51:53;3.63;;;0.98;;
46054;SDS011;31788;6.954;-71.872;2022-12-01T09:54:20;3.72;;;1.23;;
46054;SDS011;31788;6.954;-71.872;2022-12-01T09:56:48;2.50;;;0.95;;
46054;SDS011;31788;6.954;-71.872;2022-12-01T09:59:24;3.17;;;1.70;;
46054;SDS011;31788;6.954;-71.872;2022-12-01T10:01:55;2.00;;;1.20;;
46054;SDS011;31788;6.954;-71.872;2022-12-01T10:04:33;3.00;;;1.42;;
46054;SDS011;31788;6.954;-71.872;2022-12-01T10:07:02;1.92;;;1.30;;
46054;SDS011;31788;6.954;-71.872;2022-12-01T10:09:34;3.08;;;1.10;;
46054;SDS011;31788;6.954;-71.872;2022-12-01T10:12:06;2.95;;;1.20;;
46054;SDS011;31788;6.954;-71.872;2022-12-01T10:14:36;3.80;;;1.50;;
46054;SDS011;31788;6.954;-71.872;2022-12-01T10:24:54;3.78;;;1.40;;
46054;SDS011;31788;6.954;-71.872;2022-12-01T10:27:29;3.00;;;1.20;;
46054;SDS011;31788;6.954;-71.872;2022-12-01T10:30:11;3.30;;;1.20;;
46054;SDS011;31788;6.954;-71.872;2022-12-01T10:35:25;1.45;;;0.80;;
46054;SDS011;31788;6.954;-71.872;2022-12-01T10:37:57;2.25;;;0.95;;
46054;SDS011;31788;6.954;-71.872;2022-12-01T10:40:25;4.75;;;1.00;;
46054;SDS011;31788;6.954;-71.872;2022-12-01T10:42:52;3.47;;;1.08;;
46054;SDS011;31788;6.954;-71.872;2022-12-01T10:45:22;2.23;;;1.00;;
46054;SDS011;31788;6.954;-71.872;2022-12-01T10:48:10;2.10;;;1.10;;
46054;SDS011;31788;6.954;-71.872;2022-12-01T10:50:39;3.95;;;1.10;;
46054;SDS011;31788;6.954;-71.872;2022-12-01T10:53:08;2.25;;;0.80;;
46054;SDS011;31788;6.954;-71.872;2022-12-01T10:55:45;2.22;;;0.88;;
46054;SDS011;31788;6.954;-71.872;2022-12-01T10:58:15;2.90;;;0.88;;
46054;SDS011;31788;6.954;-71.872;2022-12-01T11:00:42;1.83;;;0.88;;
46054;SDS011;31788;6.954;-71.872;2022-12-01T11:03:19;3.38;;;1.00;;
46054;SDS011;31788;6.954;-71.872;2022-12-01T11:05:56;3.85;;;1.10;;
46054;SDS011;31788;6.954;-71.872;2022-12-01T11:08:35;2.27;;;0.80;;
46054;SDS011;31788;6.954;-71.872;2022-12-01T11:11:04;4.53;;;3.95;;
46054;SDS011;31788;6.954;-71.872;2022-12-01T11:13:34;2.33;;;1.30;;
46054;SDS011;31788;6.954;-71.872;2022-12-01T11:16:02;2.92;;;1.17;;
46054;SDS011;31788;6.954;-71.872;2022-12-01T11:21:13;2.83;;;1.15;;
46054;SDS011;31788;6.954;-71.872;2022-12-01T11:23:47;3.67;;;2.30;;
46054;SDS011;31788;6.954;-71.872;2022-12-01T11:28:55;2.90;;;1.75;;
46054;SDS011;31788;6.954;-71.872;2022-12-01T11:31:34;7.07;;;2.90;;
46054;SDS011;31788;6.954;-71.872;2022-12-01T11:34:01;3.92;;;1.70;;
46054;SDS011;31788;6.954;-71.872;2022-12-01T11:36:35;5.03;;;2.25;;
46054;SDS011;31788;6.954;-71.872;2022-12-01T11:39:04;2.67;;;1.40;;
46054;SDS011;31788;6.954;-71.872;2022-12-01T11:41:32;3.60;;;1.70;;
46054;SDS011;31788;6.954;-71.872;2022-12-01T11:44:00;3.85;;;2.00;;
46054;SDS011;31788;6.954;-71.872;2022-12-01T11:46:31;4.07;;;1.50;;
46054;SDS011;31788;6.954;-71.872;2022-12-01T11:48:59;3.40;;;1.60;;
46054;SDS011;31788;6.954;-71.872;2022-12-01T11:54:15;2.33;;;1.30;;
46054;SDS011;31788;6.954;-71.872;2022-12-01T11:56:40;2.47;;;1.10;;
46054;SDS011;31788;6.954;-71.872;2022-12-01T11:59:28;2.45;;;1.00;;
46054;SDS011;31788;6.954;-71.872;2022-12-01T12:04:31;3.13;;;1.30;;
46054;SDS011;31788;6.954;-71.872;2022-12-01T12:07:25;4.00;;;1.27;;
46054;SDS011;31788;6.954;-71.872;2022-12-01T12:15:10;2.60;;;1.20;;
46054;SDS011;31788;6.954;-71.872;2022-12-01T12:17:44;4.32;;;1.20;;
46054;SDS011;31788;6.954;-71.872;2022-12-01T12:22:50;2.97;;;1.02;;
46054;SDS011;31788;6.954;-71.872;2022-12-01T12:27:54;2.38;;;1.30;;
46054;SDS011;31788;6.954;-71.872;2022-12-01T12:30:27;3.05;;;1.50;;
46054;SDS011;31788;6.954;-71.872;2022-12-01T12:38:50;2.88;;;0.98;;
46054;SDS011;31788;6.954;-71.872;2022-12-01T12:41:34;2.90;;;1.15;;
46054;SDS011;31788;6.954;-71.872;2022-12-01T12:46:35;2.20;;;0.90;;
46054;SDS011;31788;6.954;-71.872;2022-12-01T12:49:16;2.30;;;1.10;;
46054;SDS011;31788;6.954;-71.872;2022-12-01T12:51:51;2.83;;;0.97;;
46054;SDS011;31788;6.954;-71.872;2022-12-01T12:56:53;2.78;;;1.10;;
46054;SDS011;31788;6.954;-71.872;2022-12-01T12:59:25;2.88;;;1.20;;
46054;SDS011;31788;6.954;-71.872;2022-12-01T13:02:02;2.20;;;0.87;;
46054;SDS011;31788;6.954;-71.872;2022-12-01T13:04:44;1.48;;;0.88;;
46054;SDS011;31788;6.954;-71.872;2022-12-01T13:09:56;1.98;;;1.10;;
46054;SDS011;31788;6.954;-71.872;2022-12-01T13:12:31;2.60;;;0.93;;
46054;SDS011;31788;6.954;-71.872;2022-12-01T13:17:39;1.85;;;1.05;;
46054;SDS011;31788;6.954;-71.872;2022-12-01T13:20:16;1.40;;;1.00;;
46054;SDS011;31788;6.954;-71.872;2022-12-01T13:22:44;3.05;;;1.10;;
46054;SDS011;31788;6.954;-71.872;2022-12-01T13:25:13;2.15;;;1.17;;
46054;SDS011;31788;6.954;-71.872;2022-12-01T13:27:41;2.10;;;1.10;;
46054;SDS011;31788;6.954;-71.872;2022-12-01T13:30:21;2.25;;;1.23;;
46054;SDS011;31788;6.954;-71.872;2022-12-01T13:32:48;2.88;;;1.17;;
46054;SDS011;31788;6.954;-71.872;2022-12-01T13:37:44;2.58;;;1.27;;
46054;SDS011;31788;6.954;-71.872;2022-12-01T13:40:32;3.28;;;1.45;;
46054;SDS011;31788;6.954;-71.872;2022-12-01T13:42:58;2.88;;;1.30;;
46054;SDS011;31788;6.954;-71.872;2022-12-01T13:45:35;2.60;;;1.20;;
46054;SDS011;31788;6.954;-71.872;2022-12-01T13:48:03;2.35;;;1.20;;
46054;SDS011;31788;6.954;-71.872;2022-12-01T13:55:59;2.60;;;1.23;;
46054;SDS011;31788;6.954;-71.872;2022-12-01T14:09:30;2.00;;;1.20;;
46054;SDS011;31788;6.954;-71.872;2022-12-01T14:12:00;2.38;;;1.10;;
46054;SDS011;31788;6.954;-71.872;2022-12-01T14:14:33;2.35;;;1.48;;
46054;SDS011;31788;6.954;-71.872;2022-12-01T14:17:00;1.98;;;1.30;;
46054;SDS011;31788;6.954;-71.872;2022-12-01T14:21:54;2.20;;;1.30;;
46054;SDS011;31788;6.954;-71.872;2022-12-01T14:24:23;2.35;;;1.23;;
46054;SDS011;31788;6.954;-71.872;2022-12-01T14:26:52;2.10;;;1.20;;
46054;SDS011;31788;6.954;-71.872;2022-12-01T14:29:26;2.07;;;1.30;;
46054;SDS011;31788;6.954;-71.872;2022-12-01T14:34:20;2.15;;;1.38;;
46054;SDS011;31788;6.954;-71.872;2022-12-01T14:36:50;2.10;;;1.23;;
46054;SDS011;31788;6.954;-71.872;2022-12-01T14:39:18;3.25;;;1.70;;
46054;SDS011;31788;6.954;-71.872;2022-12-01T14:41:54;2.33;;;1.50;;
46054;SDS011;31788;6.954;-71.872;2022-12-01T14:52:38;3.60;;;1.38;;
46054;SDS011;31788;6.954;-71.872;2022-12-01T14:55:11;2.53;;;1.42;;
46054;SDS011;31788;6.954;-71.872;2022-12-01T14:57:41;3.15;;;1.40;;
46054;SDS011;31788;6.954;-71.872;2022-12-01T15:00:13;2.10;;;1.40;;
46054;SDS011;31788;6.954;-71.872;2022-12-01T15:03:22;3.55;;;1.50;;
46054;SDS011;31788;6.954;-71.872;2022-12-01T15:05:31;3.45;;;1.70;;
46054;SDS011;31788;6.954;-71.872;2022-12-01T15:08:12;1.47;;;1.20;;
46054;SDS011;31788;6.954;-71.872;2022-12-01T15:10:47;2.75;;;1.20;;
46054;SDS011;31788;6.954;-71.872;2022-12-01T15:13:21;3.85;;;1.52;;
46054;SDS011;31788;6.954;-71.872;2022-12-01T15:15:50;3.05;;;1.10;;
46054;SDS011;31788;6.954;-71.872;2022-12-01T15:18:21;2.67;;;1.20;;
46054;SDS011;31788;6.954;-71.872;2022-12-01T15:20:48;4.55;;;1.60;;
46054;SDS011;31788;6.954;-71.872;2022-12-01T15:23:15;3.78;;;1.40;;
46054;SDS011;31788;6.954;-71.872;2022-12-01T15:25:42;4.70;;;1.23;;
46054;SDS011;31788;6.954;-71.872;2022-12-01T15:28:14;11.13;;;1.70;;
46054;SDS011;31788;6.954;-71.872;2022-12-01T15:30:43;7.85;;;1.80;;
46054;SDS011;31788;6.954;-71.872;2022-12-01T15:33:21;8.65;;;1.83;;
46054;SDS011;31788;6.954;-71.872;2022-12-01T15:35:49;6.57;;;1.50;;
46054;SDS011;31788;6.954;-71.872;2022-12-01T15:38:17;6.18;;;1.38;;
46054;SDS011;31788;6.954;-71.872;2022-12-01T15:40:44;17.03;;;2.83;;
46054;SDS011;31788;6.954;-71.872;2022-12-01T15:43:16;18.67;;;2.60;;
46054;SDS011;31788;6.954;-71.872;2022-12-01T15:48:17;18.65;;;2.70;;
46054;SDS011;31788;6.954;-71.872;2022-12-01T15:51:12;18.52;;;2.70;;
46054;SDS011;31788;6.954;-71.872;2022-12-01T15:53:37;27.35;;;3.67;;
46054;SDS011;31788;6.954;-71.872;2022-12-01T15:56:06;33.83;;;3.95;;
46054;SDS011;31788;6.954;-71.872;2022-12-01T15:58:39;39.27;;;5.33;;
46054;SDS011;31788;6.954;-71.872;2022-12-01T16:03:35;123.93;;;14.37;;
46054;SDS011;31788;6.954;-71.872;2022-12-01T16:06:11;91.53;;;11.73;;
46054;SDS011;31788;6.954;-71.872;2022-12-01T16:08:39;67.85;;;8.35;;
46054;SDS011;31788;6.954;-71.872;2022-12-01T16:11:15;34.38;;;4.47;;
46054;SDS011;31788;6.954;-71.872;2022-12-01T16:13:46;22.38;;;3.13;;
46054;SDS011;31788;6.954;-71.872;2022-12-01T16:21:26;174.13;;;22.83;;
46054;SDS011;31788;6.954;-71.872;2022-12-01T16:23:58;93.20;;;11.05;;
46054;SDS011;31788;6.954;-71.872;2022-12-01T16:26:25;96.00;;;12.45;;
46054;SDS011;31788;6.954;-71.872;2022-12-01T16:28:52;139.10;;;16.70;;
46054;SDS011;31788;6.954;-71.872;2022-12-01T16:31:19;50.13;;;6.65;;
46054;SDS011;31788;6.954;-71.872;2022-12-01T16:33:46;57.22;;;6.63;;
46054;SDS011;31788;6.954;-71.872;2022-12-01T16:36:12;35.17;;;4.68;;
46054;SDS011;31788;6.954;-71.872;2022-12-01T16:38:40;22.23;;;3.88;;
46054;SDS011;31788;6.954;-71.872;2022-12-01T16:41:16;20.20;;;3.40;;
46054;SDS011;31788;6.954;-71.872;2022-12-01T16:43:45;13.80;;;3.60;;
46054;SDS011;31788;6.954;-71.872;2022-12-01T16:46:15;14.68;;;3.00;;
46054;SDS011;31788;6.954;-71.872;2022-12-01T16:48:41;8.27;;;1.90;;
46054;SDS011;31788;6.954;-71.872;2022-12-01T16:51:09;8.93;;;2.08;;
46054;SDS011;31788;6.954;-71.872;2022-12-01T16:53:38;4.90;;;1.58;;